Monument, Oregon
Current Conditions -  °F | °C
As of 1:15 AM on Monday 20 Oct 2014 (Local Time) from KGCD Reporting Station
Clear Clear  
Wind Chill: 53°   Ceiling: Unl
Heat Index: 53°   Visibility: 10mi
Dew Point: 30°   Wind: 7mph
Humidity: 41%   Direction: 120°ESE
Pressure: 29.84"   Gusts: NA
Location:  44.82°N, 119.42°W
Report Text: KGCD 200815Z AUTO 12006KT 10SM CLR 12/M01 A2984 RMK AO2 T01181010
Loading
Personal Weather Stations






























Interactive Weather Map
Tropical Storm Tracking
New forecast layout! Learn more

10-Day Weather Forecast

Advertisements
Track Severe Weather on mobile